createdAt,value
2022-11-01T00:00:03.127Z,9.54
2022-11-01T00:02:54.730Z,9.49
2022-11-01T00:05:26.312Z,9.46
2022-11-01T00:07:58.077Z,9.44
2022-11-01T00:10:29.793Z,9.42
2022-11-01T00:13:01.847Z,9.38
2022-11-01T00:15:33.730Z,9.37
2022-11-01T00:18:05.570Z,9.37
2022-11-01T00:20:37.634Z,9.40
2022-11-01T00:23:09.177Z,9.43
2022-11-01T00:25:40.943Z,9.45
2022-11-01T00:28:12.522Z,9.45
2022-11-01T00:30:44.563Z,9.44
2022-11-01T00:33:16.333Z,9.42
2022-11-01T00:35:48.885Z,9.37
2022-11-01T00:38:20.869Z,9.32
2022-11-01T00:40:52.564Z,9.28
2022-11-01T00:43:25.050Z,9.26
2022-11-01T00:45:56.623Z,9.28
2022-11-01T00:48:28.974Z,9.28
2022-11-01T00:51:00.590Z,9.30
2022-11-01T00:53:32.246Z,9.32
2022-11-01T00:56:05.491Z,9.32
2022-11-01T00:58:37.533Z,9.31
2022-11-01T01:01:09.710Z,9.29
2022-11-01T01:03:41.432Z,9.25
2022-11-01T01:06:13.121Z,9.23
2022-11-01T01:08:44.744Z,9.21
2022-11-01T01:11:16.453Z,9.18
2022-11-01T01:13:48.026Z,9.19
2022-11-01T01:16:20.095Z,9.21
2022-11-01T01:18:52.923Z,9.24
2022-11-01T01:21:24.531Z,9.27
2022-11-01T01:23:56.077Z,9.27
2022-11-01T01:26:27.606Z,9.26
2022-11-01T01:29:00.570Z,9.25
2022-11-01T01:31:32.514Z,9.24
2022-11-01T01:34:04.078Z,9.22
2022-11-01T01:36:35.781Z,9.20
2022-11-01T01:39:07.484Z,9.19
2022-11-01T01:41:57.992Z,9.18
2022-11-01T01:45:00.538Z,9.18
2022-11-01T01:47:34.253Z,9.20
2022-11-01T01:50:10.829Z,9.21
2022-11-01T01:52:48.881Z,9.22
2022-11-01T01:55:25.373Z,9.22
2022-11-01T01:57:58.381Z,9.19
2022-11-01T02:00:29.987Z,9.16
2022-11-01T02:03:02.168Z,9.16
2022-11-01T02:05:44.559Z,9.16
2022-11-01T02:08:27.050Z,9.17
2022-11-01T02:11:01.890Z,9.18
2022-11-01T02:13:33.563Z,9.21
2022-11-01T02:16:23.081Z,9.23
2022-11-01T02:19:08.717Z,9.24
2022-11-01T02:21:57.913Z,9.25
2022-11-01T02:24:56.088Z,9.25
2022-11-01T02:27:36.254Z,9.21
2022-11-01T02:30:16.059Z,9.17
2022-11-01T02:33:00.715Z,9.13
2022-11-01T02:35:43.081Z,9.06
2022-11-01T02:38:22.602Z,9.04
2022-11-01T02:41:01.397Z,9.03
2022-11-01T02:43:38.999Z,9.04
2022-11-01T02:46:29.520Z,9.04
2022-11-01T02:49:01.159Z,9.07
2022-11-01T02:51:33.938Z,9.10
2022-11-01T02:54:08.802Z,9.12
2022-11-01T02:56:41.715Z,9.13
2022-11-01T02:59:19.684Z,9.14
2022-11-01T03:01:59.154Z,9.14
2022-11-01T03:04:31.191Z,9.15
2022-11-01T03:07:08.105Z,9.17
2022-11-01T03:09:40.697Z,9.19
2022-11-01T03:12:20.119Z,9.23
2022-11-01T03:14:57.020Z,9.27
2022-11-01T03:17:34.929Z,9.34
2022-11-01T03:20:14.206Z,9.38
2022-11-01T03:22:49.956Z,9.39
2022-11-01T03:25:42.267Z,9.41
2022-11-01T03:28:23.894Z,9.41
2022-11-01T03:31:00.236Z,9.40
2022-11-01T03:33:34.889Z,9.40
2022-11-01T03:36:14.453Z,9.43
2022-11-01T03:38:54.271Z,9.45
2022-11-01T03:41:27.881Z,9.52
2022-11-01T03:44:01.301Z,9.60
2022-11-01T03:46:33.146Z,9.69
2022-11-01T03:49:04.692Z,9.79
2022-11-01T03:51:36.539Z,9.87
2022-11-01T03:54:11.211Z,9.94
2022-11-01T03:56:43.650Z,10.00
2022-11-01T03:59:15.537Z,10.03
2022-11-01T04:01:47.164Z,10.07
2022-11-01T04:04:19.014Z,10.09
2022-11-01T04:06:51.633Z,10.11
2022-11-01T04:09:23.254Z,10.12
2022-11-01T04:11:54.789Z,10.15
2022-11-01T04:14:44.172Z,10.17
2022-11-01T04:17:33.669Z,10.21
2022-11-01T04:20:23.612Z,10.27
2022-11-01T04:22:55.214Z,10.32
2022-11-01T04:25:27.310Z,10.36
2022-11-01T04:27:59.518Z,10.37
2022-11-01T04:30:31.935Z,10.35
2022-11-01T04:33:04.017Z,10.39
2022-11-01T04:35:37.412Z,10.41
2022-11-01T04:38:11.315Z,10.43
2022-11-01T04:40:43.662Z,10.44
2022-11-01T04:43:16.849Z,10.48
2022-11-01T04:46:08.971Z,10.49
2022-11-01T04:48:40.614Z,10.51
2022-11-01T04:51:12.426Z,10.51
2022-11-01T04:53:43.971Z,10.53
2022-11-01T04:56:16.413Z,10.52
2022-11-01T04:58:48.090Z,10.53
2022-11-01T05:01:19.804Z,10.55
2022-11-01T05:03:52.026Z,10.57
2022-11-01T05:06:23.631Z,10.59
2022-11-01T05:08:56.966Z,10.63
2022-11-01T05:11:28.573Z,10.67
2022-11-01T05:14:00.438Z,10.71
2022-11-01T05:16:32.087Z,10.74
2022-11-01T05:19:04.118Z,10.75
2022-11-01T05:21:35.690Z,10.77
2022-11-01T05:24:09.090Z,10.74
2022-11-01T05:26:41.234Z,10.74
2022-11-01T05:29:24.400Z,10.74
2022-11-01T05:32:04.925Z,10.73
2022-11-01T05:34:36.596Z,10.75
2022-11-01T05:37:08.198Z,10.78
2022-11-01T05:39:39.835Z,10.83
2022-11-01T05:42:11.534Z,10.89
2022-11-01T05:44:43.141Z,10.95
2022-11-01T05:47:17.299Z,11.02
2022-11-01T05:49:49.379Z,11.08
2022-11-01T05:52:20.953Z,11.10
2022-11-01T05:54:52.722Z,11.11
2022-11-01T05:57:24.380Z,11.13
2022-11-01T05:59:55.901Z,11.14
2022-11-01T06:02:28.336Z,11.17
2022-11-01T06:05:02.855Z,11.24
2022-11-01T06:07:37.759Z,11.27
2022-11-01T06:10:11.417Z,11.32
2022-11-01T06:12:43.102Z,11.34
2022-11-01T06:15:15.622Z,11.34
2022-11-01T06:17:47.441Z,11.38
2022-11-01T06:20:19.295Z,11.42
2022-11-01T06:22:50.896Z,11.46
2022-11-01T06:25:22.531Z,11.48
2022-11-01T06:27:54.581Z,11.54
2022-11-01T06:30:26.117Z,11.61
2022-11-01T06:33:02.153Z,11.67
2022-11-01T06:35:34.339Z,11.74
2022-11-01T06:38:07.834Z,11.80
2022-11-01T06:40:39.927Z,11.85
2022-11-01T06:43:11.947Z,11.88
2022-11-01T06:45:43.826Z,11.90
2022-11-01T06:48:15.485Z,11.92
2022-11-01T06:50:47.114Z,11.91
2022-11-01T06:53:18.670Z,11.93
2022-11-01T06:55:50.519Z,11.98
2022-11-01T06:58:22.286Z,12.02
2022-11-01T07:00:54.127Z,12.08
2022-11-01T07:03:25.686Z,12.15
2022-11-01T07:06:00.572Z,12.20
2022-11-01T07:08:32.148Z,12.25
2022-11-01T07:11:03.643Z,12.28
2022-11-01T07:13:37.633Z,12.31
2022-11-01T07:16:10.285Z,12.34
2022-11-01T07:18:42.174Z,12.39
2022-11-01T07:21:14.268Z,12.41
2022-11-01T07:23:45.985Z,12.45
2022-11-01T07:26:17.893Z,12.57
2022-11-01T07:28:49.501Z,12.69
2022-11-01T07:31:21.326Z,12.77
2022-11-01T07:33:52.941Z,12.79
2022-11-01T07:36:24.689Z,12.80
2022-11-01T07:38:56.352Z,12.82
2022-11-01T07:41:28.044Z,12.89
2022-11-01T07:43:59.680Z,12.99
2022-11-01T07:46:32.181Z,13.09
2022-11-01T07:49:03.905Z,13.24
2022-11-01T07:51:35.580Z,13.37
2022-11-01T07:54:07.348Z,13.52
2022-11-01T07:56:39.010Z,13.73
2022-11-01T07:59:10.846Z,13.86
2022-11-01T08:01:42.727Z,13.95
2022-11-01T08:04:14.839Z,14.12
2022-11-01T08:06:49.668Z,14.51
2022-11-01T08:09:24.292Z,15.02
2022-11-01T08:11:55.957Z,15.53
2022-11-01T08:14:27.636Z,15.91
2022-11-01T08:17:01.764Z,16.00
2022-11-01T08:19:33.646Z,16.05
2022-11-01T08:22:06.346Z,16.29
2022-11-01T08:24:38.262Z,16.60
2022-11-01T08:27:09.819Z,16.89
2022-11-01T08:29:41.348Z,16.92
2022-11-01T08:32:13.524Z,16.92
2022-11-01T08:34:45.122Z,17.02
2022-11-01T08:37:18.577Z,17.21
2022-11-01T08:39:50.219Z,17.30
2022-11-01T08:42:22.147Z,17.35
2022-11-01T08:44:54.001Z,17.34
2022-11-01T08:47:25.930Z,17.24
2022-11-01T08:49:57.527Z,17.16
2022-11-01T08:52:29.184Z,16.98
2022-11-01T08:55:00.898Z,16.81
2022-11-01T08:57:33.515Z,16.76
2022-11-01T09:00:07.229Z,16.77
2022-11-01T09:02:38.908Z,16.95
2022-11-01T09:05:11.383Z,17.32
2022-11-01T09:07:43.260Z,17.73
2022-11-01T09:10:16.244Z,18.07
2022-11-01T09:12:47.881Z,18.36
2022-11-01T09:15:19.665Z,19.09
2022-11-01T09:17:51.405Z,19.61
2022-11-01T09:20:24.931Z,19.75
2022-11-01T09:22:57.309Z,19.67
2022-11-01T09:25:29.120Z,19.58
2022-11-01T09:28:00.885Z,19.47
2022-11-01T09:30:32.726Z,19.27
2022-11-01T09:33:08.452Z,19.07
2022-11-01T09:35:40.246Z,18.92
2022-11-01T09:38:12.014Z,18.82
2022-11-01T09:40:46.795Z,18.66
2022-11-01T09:43:25.155Z,18.56
2022-11-01T09:45:59.235Z,18.37
2022-11-01T09:48:35.341Z,18.12
2022-11-01T09:51:14.128Z,17.86
2022-11-01T09:53:45.792Z,17.79
2022-11-01T09:56:27.202Z,17.69
2022-11-01T09:59:12.405Z,17.65
2022-11-01T10:02:09.598Z,17.74
2022-11-01T10:05:17.796Z,18.29
2022-11-01T10:08:00.733Z,19.25
2022-11-01T10:10:40.569Z,19.61
2022-11-01T10:13:25.594Z,19.83
2022-11-01T10:16:03.839Z,19.63
2022-11-01T10:18:45.214Z,19.42
2022-11-01T10:21:18.521Z,19.36
2022-11-01T10:23:52.569Z,19.35
2022-11-01T10:26:28.354Z,19.46
2022-11-01T10:29:08.872Z,19.97
2022-11-01T10:31:47.447Z,21.06
2022-11-01T10:34:25.091Z,22.18
2022-11-01T10:37:01.078Z,22.97
2022-11-01T10:39:54.686Z,23.92
2022-11-01T10:42:30.823Z,24.95
2022-11-01T10:45:07.841Z,25.79
2022-11-01T10:47:43.437Z,26.41
2022-11-01T10:50:22.181Z,26.80
2022-11-01T10:52:56.879Z,27.15
2022-11-01T10:55:32.223Z,26.86
2022-11-01T10:58:34.989Z,26.15
2022-11-01T11:01:12.314Z,25.53
2022-11-01T11:03:46.617Z,25.48
2022-11-01T11:06:18.987Z,25.71
2022-11-01T11:08:53.748Z,26.06
2022-11-01T11:11:41.574Z,26.42
2022-11-01T11:14:15.547Z,26.92
2022-11-01T11:16:54.449Z,27.43
2022-11-01T11:19:35.092Z,27.88
2022-11-01T11:22:13.081Z,28.42
2022-11-01T11:24:46.501Z,28.97
2022-11-01T11:27:25.380Z,29.27
2022-11-01T11:30:00.529Z,29.25
2022-11-01T11:32:35.470Z,29.21
2022-11-01T11:35:20.675Z,29.33
2022-11-01T11:37:58.942Z,29.57
2022-11-01T11:40:46.744Z,29.59
2022-11-01T11:43:31.365Z,29.41
2022-11-01T11:46:08.878Z,29.26
2022-11-01T11:48:49.852Z,29.36
2022-11-01T11:51:22.057Z,29.51
2022-11-01T11:54:25.597Z,29.37
2022-11-01T11:57:20.313Z,29.33
2022-11-01T11:59:57.346Z,29.28
2022-11-01T12:02:34.837Z,29.06
2022-11-01T12:05:08.764Z,28.98
2022-11-01T12:07:52.253Z,29.04
2022-11-01T12:10:37.417Z,28.87
2022-11-01T12:13:26.330Z,28.63
2022-11-01T12:16:16.805Z,28.12
2022-11-01T12:18:57.235Z,26.88
2022-11-01T12:21:31.273Z,26.43
2022-11-01T12:24:14.173Z,26.12
2022-11-01T12:26:47.282Z,25.55
2022-11-01T12:29:30.156Z,24.81
2022-11-01T12:32:07.279Z,24.48
2022-11-01T12:34:42.742Z,24.28
2022-11-01T12:37:20.749Z,24.05
2022-11-01T12:40:01.629Z,24.07
2022-11-01T12:42:40.738Z,24.08
2022-11-01T12:45:20.354Z,23.80
2022-11-01T12:48:15.946Z,23.31
2022-11-01T12:51:14.531Z,22.81
2022-11-01T12:53:50.632Z,22.39
2022-11-01T12:56:22.477Z,21.98
2022-11-01T12:58:57.099Z,21.65
2022-11-01T13:01:36.479Z,21.35
2022-11-01T13:04:21.887Z,21.02
2022-11-01T13:07:13.852Z,20.62
2022-11-01T13:09:54.385Z,20.27
2022-11-01T13:12:36.052Z,19.95
2022-11-01T13:15:16.240Z,19.62
2022-11-01T13:17:56.325Z,19.35
2022-11-01T13:20:40.577Z,19.17
2022-11-01T13:23:24.531Z,19.04
2022-11-01T13:26:02.974Z,18.90
2022-11-01T13:28:51.573Z,18.69
2022-11-01T13:31:47.457Z,18.53
2022-11-01T13:34:37.750Z,18.31
2022-11-01T13:37:18.325Z,18.08
2022-11-01T13:40:03.901Z,17.86
2022-11-01T13:42:39.829Z,17.71
2022-11-01T13:45:48.161Z,17.58
2022-11-01T13:48:31.595Z,17.35
2022-11-01T13:51:18.274Z,17.24
2022-11-01T13:53:58.354Z,17.09
2022-11-01T13:56:35.400Z,16.94
2022-11-01T13:59:30.036Z,16.74
2022-11-01T14:02:47.629Z,16.62
2022-11-01T14:05:19.714Z,16.52
2022-11-01T14:08:14.732Z,16.45
2022-11-01T14:10:52.224Z,16.27
2022-11-01T14:13:38.752Z,16.17
2022-11-01T14:16:29.635Z,16.10
2022-11-01T14:19:22.589Z,15.96
2022-11-01T14:21:58.235Z,15.84
2022-11-01T14:24:35.161Z,15.75
2022-11-01T14:27:22.937Z,15.63
2022-11-01T14:29:56.053Z,15.46
2022-11-01T14:32:31.338Z,15.36
2022-11-01T14:35:08.501Z,15.22
2022-11-01T14:37:44.862Z,15.10
2022-11-01T14:40:35.385Z,15.01
2022-11-01T14:43:16.397Z,14.94
2022-11-01T14:45:53.977Z,14.91
2022-11-01T14:48:32.013Z,14.88
2022-11-01T14:51:12.798Z,14.87
2022-11-01T14:53:47.219Z,14.80
2022-11-01T14:56:20.994Z,14.74
2022-11-01T14:59:12.767Z,14.71
2022-11-01T15:01:48.954Z,14.65
2022-11-01T15:04:25.770Z,14.58
2022-11-01T15:06:58.734Z,14.52
2022-11-01T15:09:32.877Z,14.47
2022-11-01T15:12:11.066Z,14.39
2022-11-01T15:14:45.920Z,14.35
2022-11-01T15:17:24.200Z,14.29
2022-11-01T15:19:56.673Z,14.22
2022-11-01T15:22:31.393Z,14.14
2022-11-01T15:25:06.209Z,14.09
2022-11-01T15:27:41.629Z,14.05
2022-11-01T15:30:23.616Z,14.03
2022-11-01T15:33:15.001Z,14.04
2022-11-01T15:35:56.307Z,14.03
2022-11-01T15:38:30.100Z,14.00
2022-11-01T15:41:19.786Z,13.96
2022-11-01T15:43:55.826Z,13.93
2022-11-01T15:46:29.914Z,13.88
2022-11-01T15:49:06.612Z,13.82
2022-11-01T15:51:43.562Z,13.79
2022-11-01T15:54:30.917Z,13.76
2022-11-01T15:57:09.655Z,13.72
2022-11-01T15:59:55.129Z,13.69
2022-11-01T16:02:32.233Z,13.68
2022-11-01T16:05:04.373Z,13.66
2022-11-01T16:07:36.702Z,13.65
2022-11-01T16:10:16.610Z,13.62
2022-11-01T16:12:49.161Z,13.60
2022-11-01T16:15:27.885Z,13.55
2022-11-01T16:18:01.920Z,13.51
2022-11-01T16:20:37.569Z,13.47
2022-11-01T16:23:10.545Z,13.43
2022-11-01T16:25:42.308Z,13.37
2022-11-01T16:28:38.013Z,13.32
2022-11-01T16:31:22.664Z,13.30
2022-11-01T16:33:55.012Z,13.28
2022-11-01T16:36:42.579Z,13.29
2022-11-01T16:39:32.089Z,13.30
2022-11-01T16:42:03.792Z,13.28
2022-11-01T16:44:36.490Z,13.25
2022-11-01T16:47:08.288Z,13.23
2022-11-01T16:49:45.601Z,13.20
2022-11-01T16:52:18.537Z,13.16
2022-11-01T16:54:52.297Z,13.12
2022-11-01T16:57:27.843Z,13.05
2022-11-01T16:59:59.953Z,12.99
2022-11-01T17:02:32.991Z,12.95
2022-11-01T17:05:16.706Z,12.92
2022-11-01T17:07:48.762Z,12.87
2022-11-01T17:10:22.399Z,12.85
2022-11-01T17:12:57.903Z,12.83
2022-11-01T17:15:30.341Z,12.81
2022-11-01T17:18:07.675Z,12.81
2022-11-01T17:20:42.156Z,12.79
2022-11-01T17:23:17.190Z,12.75
2022-11-01T17:25:52.533Z,12.71
2022-11-01T17:28:25.983Z,12.68
2022-11-01T17:30:58.073Z,12.66
2022-11-01T17:33:29.828Z,12.64
2022-11-01T17:36:02.279Z,12.63
2022-11-01T17:38:35.724Z,12.63
2022-11-01T17:41:20.062Z,12.64
2022-11-01T17:43:51.769Z,12.64
2022-11-01T17:46:27.222Z,12.63
2022-11-01T17:48:58.894Z,12.62
2022-11-01T17:51:30.666Z,12.59
2022-11-01T17:54:02.245Z,12.58
2022-11-01T17:56:33.987Z,12.56
2022-11-01T17:59:05.550Z,12.52
2022-11-01T18:01:38.998Z,12.50
2022-11-01T18:04:11.262Z,12.50
2022-11-01T18:06:43.789Z,12.51
2022-11-01T18:09:21.310Z,12.53
2022-11-01T18:12:00.636Z,12.52
2022-11-01T18:14:49.128Z,12.54
2022-11-01T18:17:49.068Z,12.54
2022-11-01T18:20:36.407Z,12.53
2022-11-01T18:23:12.205Z,12.50
2022-11-01T18:25:47.209Z,12.48
2022-11-01T18:28:23.156Z,12.43
2022-11-01T18:30:58.430Z,12.42
2022-11-01T18:33:38.143Z,12.40
2022-11-01T18:36:18.233Z,12.38
2022-11-01T18:38:57.293Z,12.38
2022-11-01T18:41:29.023Z,12.38
2022-11-01T18:44:02.075Z,12.38
2022-11-01T18:46:43.381Z,12.38
2022-11-01T18:49:15.533Z,12.38
2022-11-01T18:51:47.737Z,12.35
2022-11-01T18:54:27.054Z,12.32
2022-11-01T18:57:10.608Z,12.28
2022-11-01T18:59:43.080Z,12.26
2022-11-01T19:02:19.534Z,12.23
2022-11-01T19:04:52.959Z,12.21
2022-11-01T19:07:39.324Z,12.23
2022-11-01T19:10:22.169Z,12.23
2022-11-01T19:12:56.218Z,12.23
2022-11-01T19:15:31.175Z,12.22
2022-11-01T19:18:07.618Z,12.21
2022-11-01T19:20:46.430Z,12.18
2022-11-01T19:23:21.252Z,12.18
2022-11-01T19:25:53.739Z,12.16
2022-11-01T19:28:31.989Z,12.15
2022-11-01T19:31:08.990Z,12.16
2022-11-01T19:33:43.524Z,12.18
2022-11-01T19:36:20.488Z,12.20
2022-11-01T19:38:54.184Z,12.23
2022-11-01T19:41:31.061Z,12.23
2022-11-01T19:44:12.563Z,12.21
2022-11-01T19:46:44.192Z,12.19
2022-11-01T19:49:25.080Z,12.19
2022-11-01T19:52:18.649Z,12.19
2022-11-01T19:54:55.029Z,12.19
2022-11-01T19:57:34.025Z,12.17
2022-11-01T20:00:20.125Z,12.20
2022-11-01T20:02:54.399Z,12.24
2022-11-01T20:05:35.045Z,12.28
2022-11-01T20:08:21.548Z,12.29
2022-11-01T20:10:53.200Z,12.30
2022-11-01T20:13:24.949Z,12.32
2022-11-01T20:15:56.621Z,12.31
2022-11-01T20:18:28.376Z,12.30
2022-11-01T20:21:00.028Z,12.29
2022-11-01T20:23:32.295Z,12.29
2022-11-01T20:26:04.823Z,12.32
2022-11-01T20:28:36.683Z,12.34
2022-11-01T20:31:08.554Z,12.36
2022-11-01T20:33:41.019Z,12.37
2022-11-01T20:36:12.739Z,12.37
2022-11-01T20:38:45.232Z,12.37
2022-11-01T20:41:16.952Z,12.37
2022-11-01T20:43:48.549Z,12.37
2022-11-01T20:46:20.522Z,12.38
2022-11-01T20:48:52.459Z,12.38
2022-11-01T20:51:24.023Z,12.39
2022-11-01T20:53:56.948Z,12.40
2022-11-01T20:56:29.380Z,12.43
2022-11-01T21:01:38.129Z,12.47
2022-11-01T21:04:14.329Z,12.48
2022-11-01T21:06:45.922Z,12.48
2022-11-01T21:09:30.535Z,12.47
2022-11-01T21:12:02.129Z,12.47
2022-11-01T21:14:37.948Z,12.47
2022-11-01T21:17:18.209Z,12.49
2022-11-01T21:19:53.862Z,12.52
2022-11-01T21:22:25.582Z,12.56
2022-11-01T21:24:58.667Z,12.61
2022-11-01T21:27:31.609Z,12.65
2022-11-01T21:30:17.428Z,12.69
2022-11-01T21:32:49.314Z,12.72
2022-11-01T21:35:41.232Z,12.73
2022-11-01T21:38:46.197Z,12.73
2022-11-01T21:41:28.361Z,12.74
2022-11-01T21:44:02.481Z,12.74
2022-11-01T21:46:38.497Z,12.75
2022-11-01T21:49:25.205Z,12.77
2022-11-01T21:52:00.616Z,12.79
2022-11-01T21:54:35.251Z,12.82
2022-11-01T21:57:08.588Z,12.86
2022-11-01T21:59:41.037Z,12.88
2022-11-01T22:02:15.777Z,12.91
2022-11-01T22:04:47.524Z,12.94
2022-11-01T22:07:19.122Z,12.96
2022-11-01T22:09:50.667Z,12.97
2022-11-01T22:12:22.482Z,12.97
2022-11-01T22:14:54.056Z,12.97
2022-11-01T22:17:25.701Z,12.97
2022-11-01T22:19:57.323Z,12.96
2022-11-01T22:22:29.141Z,12.99
2022-11-01T22:25:00.670Z,13.02
2022-11-01T22:27:32.296Z,13.03
2022-11-01T22:30:04.196Z,13.05
2022-11-01T22:32:37.061Z,13.04
2022-11-01T22:35:09.780Z,13.02
2022-11-01T22:37:42.575Z,13.01
2022-11-01T22:40:17.750Z,12.99
2022-11-01T22:42:51.826Z,12.99
2022-11-01T22:45:23.412Z,12.98
2022-11-01T22:47:55.094Z,12.96
2022-11-01T22:50:29.536Z,12.94
2022-11-01T22:53:01.520Z,12.94
2022-11-01T22:55:34.130Z,12.96
2022-11-01T22:58:25.773Z,12.99
2022-11-01T23:00:59.141Z,13.00
2022-11-01T23:03:32.257Z,13.00
2022-11-01T23:06:18.925Z,12.98
2022-11-01T23:08:50.638Z,12.94
2022-11-01T23:11:46.694Z,12.90
2022-11-01T23:14:37.374Z,12.84
2022-11-01T23:17:27.621Z,12.82
2022-11-01T23:20:01.960Z,12.80
2022-11-01T23:22:37.210Z,12.79
2022-11-01T23:25:11.755Z,12.78
2022-11-01T23:27:46.004Z,12.77
2022-11-01T23:30:20.377Z,12.79
2022-11-01T23:32:51.898Z,12.80
2022-11-01T23:35:25.234Z,12.80
2022-11-01T23:37:59.549Z,12.79
2022-11-01T23:40:34.899Z,12.79
2022-11-01T23:43:24.004Z,12.76
2022-11-01T23:45:56.036Z,12.75
2022-11-01T23:48:27.786Z,12.73
2022-11-01T23:50:59.419Z,12.72
2022-11-01T23:53:36.546Z,12.71
2022-11-01T23:56:10.289Z,12.72
2022-11-01T23:58:42.021Z,12.74
